RYR8704 ESSA-EPMO
Flight info
| Callsign | RYR8704 |
|---|---|
| Flight time | 1h 18m |
| Altitude | 35000 |
| Route | BABAP P156 NEKLA RASEL Y40 LITPA KAZLA/N0459F360 BOKSU M857 SUWGI BULEP XESNA GERVI NEPOX |
| Aircraft | B738/M-SDE2E3FGHIRWXY/LB1 |
Departure
| Time | 2026-05-05 17:44 |
|---|---|
| Airport | Stockholm-Arlanda Airport (ESSA) |
Arrival
| Time | 2026-05-05 19:02 |
|---|---|
| Airport | Warsaw Modlin Airport (EPMO) |
| Time | Latitude | Longitude | Altitude | Speed | Heading |
|---|---|---|---|---|---|
| 2026-05-05 17:14 | 59.65289 | 17.92955 | 110 ft | 0 kts | 71° |
| 2026-05-05 17:31 | 59.65287 | 17.92941 | 111 ft | 2 kts | 71° |
| 2026-05-05 17:31 | 59.65281 | 17.92911 | 109 ft | 2 kts | 66° |
| 2026-05-05 17:32 | 59.65274 | 17.92881 | 111 ft | 2 kts | 60° |
| 2026-05-05 17:32 | 59.65264 | 17.92855 | 109 ft | 2 kts | 45° |
| 2026-05-05 17:32 | 59.65251 | 17.92837 | 109 ft | 2 kts | 7° |
| 2026-05-05 17:32 | 59.65236 | 17.92839 | 109 ft | 1 kts | 340° |
| 2026-05-05 17:33 | 59.65233 | 17.92841 | 108 ft | 0 kts | 339° |
| 2026-05-05 17:37 | 59.65234 | 17.92841 | 108 ft | 1 kts | 339° |
| 2026-05-05 17:37 | 59.65262 | 17.92810 | 111 ft | 6 kts | 331° |
| 2026-05-05 17:38 | 59.65300 | 17.92768 | 111 ft | 6 kts | 331° |
| 2026-05-05 17:38 | 59.65345 | 17.92720 | 111 ft | 9 kts | 331° |
| 2026-05-05 17:38 | 59.65381 | 17.92627 | 110 ft | 10 kts | 274° |
| 2026-05-05 17:38 | 59.65338 | 17.92509 | 109 ft | 11 kts | 217° |
| 2026-05-05 17:39 | 59.65267 | 17.92425 | 109 ft | 12 kts | 203° |
| 2026-05-05 17:39 | 59.65175 | 17.92374 | 111 ft | 17 kts | 191° |
| 2026-05-05 17:39 | 59.65055 | 17.92332 | 111 ft | 17 kts | 190° |
| 2026-05-05 17:39 | 59.64936 | 17.92287 | 111 ft | 18 kts | 190° |
| 2026-05-05 17:40 | 59.64813 | 17.92242 | 111 ft | 18 kts | 190° |
| 2026-05-05 17:40 | 59.64693 | 17.92200 | 111 ft | 17 kts | 190° |
| 2026-05-05 17:40 | 59.64614 | 17.92171 | 110 ft | 17 kts | 191° |
| 2026-05-05 17:40 | 59.64503 | 17.92131 | 112 ft | 16 kts | 190° |
| 2026-05-05 17:41 | 59.64393 | 17.92091 | 113 ft | 16 kts | 190° |
| 2026-05-05 17:41 | 59.64333 | 17.91980 | 110 ft | 13 kts | 260° |
| 2026-05-05 17:41 | 59.64268 | 17.91880 | 112 ft | 13 kts | 189° |
| 2026-05-05 17:41 | 59.64169 | 17.91845 | 113 ft | 16 kts | 192° |
| 2026-05-05 17:42 | 59.64044 | 17.91800 | 112 ft | 21 kts | 190° |
| 2026-05-05 17:42 | 59.63888 | 17.91742 | 108 ft | 23 kts | 194° |
| 2026-05-05 17:42 | 59.63772 | 17.91591 | 105 ft | 13 kts | 220° |
| 2026-05-05 17:42 | 59.63724 | 17.91456 | 107 ft | 12 kts | 263° |
| 2026-05-05 17:43 | 59.63775 | 17.91342 | 109 ft | 12 kts | 347° |
| 2026-05-05 17:43 | 59.63891 | 17.91382 | 108 ft | 40 kts | 11° |
| 2026-05-05 17:43 | 59.64445 | 17.91582 | 108 ft | 119 kts | 10° |
| 2026-05-05 17:43 | 59.65459 | 17.91961 | 289 ft | 168 kts | 11° |
| 2026-05-05 17:44 | 59.66637 | 17.92358 | 1171 ft | 178 kts | 8° |
| 2026-05-05 17:44 | 59.67916 | 17.92842 | 1894 ft | 198 kts | 8° |
| 2026-05-05 17:44 | 59.69288 | 17.93355 | 2561 ft | 203 kts | 7° |
| 2026-05-05 17:44 | 59.70687 | 17.93861 | 3181 ft | 206 kts | 7° |
| 2026-05-05 17:45 | 59.72107 | 17.94359 | 3792 ft | 209 kts | 6° |
| 2026-05-05 17:45 | 59.73547 | 17.94867 | 4394 ft | 213 kts | 8° |
| 2026-05-05 17:45 | 59.74942 | 17.96245 | 4635 ft | 243 kts | 44° |
| 2026-05-05 17:45 | 59.75720 | 17.99284 | 5122 ft | 255 kts | 78° |
| 2026-05-05 17:46 | 59.75779 | 18.02794 | 5822 ft | 256 kts | 93° |
| 2026-05-05 17:46 | 59.75637 | 18.06356 | 6384 ft | 262 kts | 94° |
| 2026-05-05 17:46 | 59.75485 | 18.10032 | 6768 ft | 277 kts | 94° |
| 2026-05-05 17:46 | 59.75335 | 18.13926 | 7361 ft | 287 kts | 96° |
| 2026-05-05 17:47 | 59.74694 | 18.17644 | 8150 ft | 288 kts | 128° |
| 2026-05-05 17:47 | 59.73208 | 18.20231 | 8993 ft | 286 kts | 148° |
| 2026-05-05 17:47 | 59.71542 | 18.22431 | 9798 ft | 290 kts | 149° |
| 2026-05-05 17:47 | 59.69829 | 18.24674 | 10317 ft | 304 kts | 149° |
| 2026-05-05 17:48 | 59.67996 | 18.27082 | 10499 ft | 328 kts | 149° |
| 2026-05-05 17:48 | 59.66036 | 18.29681 | 10688 ft | 350 kts | 149° |
| 2026-05-05 17:48 | 59.63962 | 18.32460 | 10862 ft | 371 kts | 148° |
| 2026-05-05 17:48 | 59.61783 | 18.35405 | 11187 ft | 385 kts | 148° |
| 2026-05-05 17:49 | 59.59550 | 18.38442 | 11758 ft | 392 kts | 148° |
| 2026-05-05 17:49 | 59.57295 | 18.41519 | 12417 ft | 396 kts | 149° |
| 2026-05-05 17:49 | 59.55019 | 18.44627 | 13054 ft | 401 kts | 149° |
| 2026-05-05 17:49 | 59.52712 | 18.47774 | 13686 ft | 406 kts | 150° |
| 2026-05-05 17:50 | 59.50405 | 18.50913 | 14102 ft | 414 kts | 151° |
| 2026-05-05 17:50 | 59.48010 | 18.54159 | 14503 ft | 421 kts | 152° |
| 2026-05-05 17:50 | 59.45595 | 18.57437 | 15150 ft | 422 kts | 153° |
| 2026-05-05 17:50 | 59.43168 | 18.60726 | 15774 ft | 424 kts | 153° |
| 2026-05-05 17:51 | 59.40732 | 18.64033 | 16248 ft | 429 kts | 154° |
| 2026-05-05 17:51 | 59.38241 | 18.67317 | 16663 ft | 435 kts | 154° |
| 2026-05-05 17:51 | 59.35732 | 18.70691 | 17227 ft | 439 kts | 154° |
| 2026-05-05 17:51 | 59.33215 | 18.74097 | 17844 ft | 440 kts | 154° |
| 2026-05-05 17:52 | 59.30688 | 18.77511 | 18366 ft | 443 kts | 155° |
| 2026-05-05 17:52 | 59.28144 | 18.80935 | 18827 ft | 446 kts | 155° |
| 2026-05-05 17:52 | 59.25581 | 18.84371 | 19299 ft | 448 kts | 155° |
| 2026-05-05 17:52 | 59.22999 | 18.87821 | 19765 ft | 451 kts | 155° |
| 2026-05-05 17:53 | 59.20407 | 18.91276 | 20222 ft | 453 kts | 155° |
| 2026-05-05 17:53 | 59.17794 | 18.94750 | 20667 ft | 456 kts | 155° |
| 2026-05-05 17:53 | 59.15168 | 18.98234 | 21101 ft | 458 kts | 155° |
| 2026-05-05 17:53 | 59.12523 | 19.01736 | 21522 ft | 461 kts | 155° |
| 2026-05-05 17:54 | 59.09863 | 19.05252 | 21941 ft | 463 kts | 155° |
| 2026-05-05 17:54 | 59.07194 | 19.08773 | 22352 ft | 466 kts | 155° |
| 2026-05-05 17:54 | 59.04501 | 19.12319 | 22712 ft | 468 kts | 155° |
| 2026-05-05 17:54 | 59.01799 | 19.15871 | 23081 ft | 471 kts | 155° |
| 2026-05-05 17:55 | 58.99078 | 19.19440 | 23453 ft | 473 kts | 155° |
| 2026-05-05 17:55 | 58.96343 | 19.23022 | 23777 ft | 475 kts | 155° |
| 2026-05-05 17:55 | 58.93601 | 19.26607 | 24107 ft | 477 kts | 155° |
| 2026-05-05 17:55 | 58.90841 | 19.30207 | 24427 ft | 479 kts | 155° |
| 2026-05-05 17:56 | 58.88075 | 19.33808 | 24704 ft | 481 kts | 155° |
| 2026-05-05 17:56 | 58.85301 | 19.37414 | 25046 ft | 480 kts | 155° |
| 2026-05-05 17:56 | 58.82525 | 19.41016 | 25404 ft | 481 kts | 155° |
| 2026-05-05 17:56 | 58.79742 | 19.44618 | 25688 ft | 483 kts | 155° |
| 2026-05-05 17:57 | 58.76947 | 19.48226 | 25940 ft | 485 kts | 155° |
| 2026-05-05 17:57 | 58.74138 | 19.51844 | 26199 ft | 487 kts | 155° |
| 2026-05-05 17:57 | 58.71317 | 19.55472 | 26467 ft | 488 kts | 155° |
| 2026-05-05 17:57 | 58.68491 | 19.59100 | 26803 ft | 488 kts | 155° |
| 2026-05-05 17:58 | 58.65670 | 19.62720 | 27169 ft | 486 kts | 154° |
| 2026-05-05 17:58 | 58.62864 | 19.66314 | 27597 ft | 484 kts | 154° |
| 2026-05-05 17:58 | 58.60065 | 19.69889 | 27992 ft | 483 kts | 154° |
| 2026-05-05 17:58 | 58.57271 | 19.73449 | 28350 ft | 483 kts | 155° |
| 2026-05-05 17:59 | 58.54509 | 19.76960 | 28686 ft | 482 kts | 154° |
| 2026-05-05 17:59 | 58.51684 | 19.80542 | 29048 ft | 481 kts | 155° |
| 2026-05-05 17:59 | 58.48930 | 19.84029 | 29408 ft | 481 kts | 155° |
| 2026-05-05 17:59 | 58.46143 | 19.87551 | 29784 ft | 480 kts | 155° |
| 2026-05-05 18:00 | 58.43361 | 19.91061 | 30130 ft | 479 kts | 155° |
| 2026-05-05 18:00 | 58.40579 | 19.94563 | 30416 ft | 479 kts | 155° |
| 2026-05-05 18:00 | 58.37801 | 19.98053 | 30704 ft | 478 kts | 155° |
| 2026-05-05 18:00 | 58.35022 | 20.01538 | 30994 ft | 478 kts | 155° |
| 2026-05-05 18:01 | 58.32246 | 20.05014 | 31296 ft | 477 kts | 155° |
| 2026-05-05 18:01 | 58.29478 | 20.08472 | 31528 ft | 477 kts | 154° |
| 2026-05-05 18:01 | 58.26704 | 20.11931 | 31789 ft | 477 kts | 154° |
| 2026-05-05 18:01 | 58.23933 | 20.15379 | 32078 ft | 476 kts | 154° |
| 2026-05-05 18:02 | 58.21168 | 20.18815 | 32365 ft | 475 kts | 154° |
| 2026-05-05 18:02 | 58.18412 | 20.22236 | 32701 ft | 473 kts | 154° |
| 2026-05-05 18:02 | 58.15661 | 20.25641 | 32973 ft | 472 kts | 154° |
| 2026-05-05 18:02 | 58.12909 | 20.29040 | 33204 ft | 473 kts | 154° |
| 2026-05-05 18:03 | 58.10151 | 20.32440 | 33464 ft | 472 kts | 154° |
| 2026-05-05 18:03 | 58.07407 | 20.35821 | 33752 ft | 471 kts | 154° |
| 2026-05-05 18:03 | 58.04656 | 20.39202 | 34007 ft | 471 kts | 154° |
| 2026-05-05 18:03 | 58.01898 | 20.42499 | 34196 ft | 468 kts | 158° |
| 2026-05-05 18:04 | 57.99052 | 20.45439 | 34375 ft | 465 kts | 160° |
| 2026-05-05 18:04 | 57.96172 | 20.48212 | 34567 ft | 464 kts | 161° |
| 2026-05-05 18:04 | 57.93281 | 20.50922 | 34732 ft | 464 kts | 161° |
| 2026-05-05 18:04 | 57.90395 | 20.53619 | 34868 ft | 464 kts | 161° |
| 2026-05-05 18:05 | 57.87494 | 20.56345 | 34886 ft | 467 kts | 160° |
| 2026-05-05 18:05 | 57.81684 | 20.61868 | 34897 ft | 467 kts | 160° |
| 2026-05-05 18:06 | 57.75908 | 20.67403 | 34907 ft | 465 kts | 160° |
| 2026-05-05 18:06 | 57.70189 | 20.72873 | 34899 ft | 464 kts | 160° |
| 2026-05-05 18:07 | 57.64442 | 20.78346 | 34906 ft | 463 kts | 160° |
| 2026-05-05 18:07 | 57.58668 | 20.83821 | 34871 ft | 462 kts | 160° |
| 2026-05-05 18:08 | 57.52937 | 20.89236 | 34882 ft | 462 kts | 159° |
| 2026-05-05 18:08 | 57.47246 | 20.94593 | 34901 ft | 462 kts | 159° |
| 2026-05-05 18:09 | 57.41512 | 20.99972 | 34912 ft | 462 kts | 159° |
| 2026-05-05 18:09 | 57.35760 | 21.05349 | 34917 ft | 463 kts | 159° |
| 2026-05-05 18:10 | 57.29995 | 21.10720 | 34907 ft | 464 kts | 159° |
| 2026-05-05 18:10 | 57.24214 | 21.16086 | 34911 ft | 465 kts | 160° |
| 2026-05-05 18:11 | 57.18457 | 21.21413 | 34882 ft | 465 kts | 160° |
| 2026-05-05 18:11 | 57.12666 | 21.26753 | 34908 ft | 465 kts | 160° |
| 2026-05-05 18:12 | 57.06881 | 21.32067 | 34911 ft | 464 kts | 160° |
| 2026-05-05 18:12 | 57.01106 | 21.37354 | 34916 ft | 464 kts | 160° |
| 2026-05-05 18:13 | 56.95333 | 21.42620 | 34916 ft | 463 kts | 160° |
| 2026-05-05 18:13 | 56.89556 | 21.47871 | 34915 ft | 463 kts | 160° |
| 2026-05-05 18:14 | 56.83786 | 21.53098 | 34914 ft | 463 kts | 160° |
| 2026-05-05 18:14 | 56.78021 | 21.58305 | 34906 ft | 462 kts | 161° |
| 2026-05-05 18:15 | 56.72263 | 21.63485 | 34922 ft | 461 kts | 161° |
| 2026-05-05 18:15 | 56.66514 | 21.68639 | 34915 ft | 461 kts | 161° |
| 2026-05-05 18:16 | 56.60766 | 21.73775 | 34915 ft | 460 kts | 161° |
| 2026-05-05 18:16 | 56.55018 | 21.78894 | 34902 ft | 460 kts | 161° |
| 2026-05-05 18:17 | 56.49316 | 21.83955 | 34914 ft | 459 kts | 161° |
| 2026-05-05 18:17 | 56.43538 | 21.89068 | 34912 ft | 458 kts | 161° |
| 2026-05-05 18:18 | 56.37812 | 21.94117 | 34913 ft | 458 kts | 162° |
| 2026-05-05 18:18 | 56.32069 | 21.98786 | 34915 ft | 454 kts | 165° |
| 2026-05-05 18:19 | 56.26243 | 22.03119 | 34922 ft | 453 kts | 165° |
| 2026-05-05 18:19 | 56.20416 | 22.07454 | 34885 ft | 454 kts | 165° |
| 2026-05-05 18:20 | 56.14597 | 22.11833 | 34909 ft | 453 kts | 165° |
| 2026-05-05 18:20 | 56.08784 | 22.16224 | 34890 ft | 453 kts | 165° |
| 2026-05-05 18:21 | 56.02988 | 22.20594 | 34907 ft | 452 kts | 165° |
| 2026-05-05 18:21 | 55.97190 | 22.24949 | 34916 ft | 451 kts | 165° |
| 2026-05-05 18:22 | 55.91399 | 22.29282 | 34911 ft | 451 kts | 165° |
| 2026-05-05 18:22 | 55.85609 | 22.33601 | 34908 ft | 451 kts | 165° |
| 2026-05-05 18:23 | 55.79818 | 22.37906 | 34904 ft | 451 kts | 165° |
| 2026-05-05 18:23 | 55.74025 | 22.42199 | 34915 ft | 451 kts | 165° |
| 2026-05-05 18:24 | 55.68226 | 22.46481 | 34914 ft | 452 kts | 165° |
| 2026-05-05 18:24 | 55.62422 | 22.50755 | 34911 ft | 452 kts | 165° |
| 2026-05-05 18:25 | 55.56606 | 22.55023 | 34915 ft | 452 kts | 165° |
| 2026-05-05 18:25 | 55.50832 | 22.59248 | 34908 ft | 452 kts | 165° |
| 2026-05-05 18:26 | 55.45011 | 22.63494 | 34916 ft | 453 kts | 165° |
| 2026-05-05 18:26 | 55.39184 | 22.67730 | 34910 ft | 454 kts | 165° |
| 2026-05-05 18:27 | 55.33341 | 22.71964 | 34901 ft | 454 kts | 165° |
| 2026-05-05 18:27 | 55.27492 | 22.76188 | 34909 ft | 455 kts | 165° |
| 2026-05-05 18:28 | 55.18699 | 22.82514 | 34892 ft | 456 kts | 165° |
| 2026-05-05 18:28 | 55.12830 | 22.86719 | 34903 ft | 457 kts | 165° |
| 2026-05-05 18:29 | 55.07893 | 22.90247 | 34909 ft | 457 kts | 165° |
| 2026-05-05 18:29 | 55.02035 | 22.94420 | 34902 ft | 458 kts | 165° |
| 2026-05-05 18:30 | 54.96129 | 22.98614 | 34893 ft | 459 kts | 165° |
| 2026-05-05 18:30 | 54.90210 | 23.02804 | 34878 ft | 460 kts | 164° |
| 2026-05-05 18:31 | 54.84282 | 23.06987 | 34894 ft | 460 kts | 164° |
| 2026-05-05 18:31 | 54.78337 | 23.11169 | 34899 ft | 461 kts | 164° |
| 2026-05-05 18:32 | 54.72382 | 23.15345 | 34891 ft | 462 kts | 164° |
| 2026-05-05 18:32 | 54.66419 | 23.19514 | 34889 ft | 462 kts | 164° |
| 2026-05-05 18:33 | 54.60457 | 23.23670 | 34870 ft | 462 kts | 164° |
| 2026-05-05 18:33 | 54.54497 | 23.27712 | 34867 ft | 455 kts | 170° |
| 2026-05-05 18:34 | 54.51433 | 23.28354 | 34893 ft | 437 kts | 189° |
| 2026-05-05 18:34 | 54.48479 | 23.27466 | 34886 ft | 427 kts | 202° |
| 2026-05-05 18:34 | 54.45780 | 23.25491 | 34880 ft | 419 kts | 215° |
| 2026-05-05 18:34 | 54.43416 | 23.22621 | 34897 ft | 415 kts | 221° |
| 2026-05-05 18:35 | 54.38876 | 23.16509 | 34880 ft | 415 kts | 221° |
| 2026-05-05 18:35 | 54.34285 | 23.10481 | 34880 ft | 416 kts | 220° |
| 2026-05-05 18:36 | 54.29451 | 23.04990 | 34876 ft | 421 kts | 209° |
| 2026-05-05 18:36 | 54.23960 | 23.01284 | 34877 ft | 426 kts | 205° |
| 2026-05-05 18:37 | 54.18416 | 22.97651 | 34876 ft | 427 kts | 205° |
| 2026-05-05 18:37 | 54.12874 | 22.93959 | 34875 ft | 428 kts | 206° |
| 2026-05-05 18:38 | 54.07307 | 22.90272 | 34850 ft | 430 kts | 204° |
| 2026-05-05 18:38 | 54.01462 | 22.87705 | 34867 ft | 436 kts | 197° |
| 2026-05-05 18:39 | 53.95511 | 22.85556 | 34867 ft | 438 kts | 197° |
| 2026-05-05 18:39 | 53.89550 | 22.83376 | 34854 ft | 439 kts | 197° |
| 2026-05-05 18:40 | 53.83582 | 22.81141 | 34853 ft | 439 kts | 197° |
| 2026-05-05 18:40 | 53.77667 | 22.78909 | 34850 ft | 439 kts | 198° |
| 2026-05-05 18:41 | 53.71704 | 22.76661 | 34851 ft | 439 kts | 198° |
| 2026-05-05 18:41 | 53.65742 | 22.74422 | 34844 ft | 439 kts | 198° |
| 2026-05-05 18:42 | 53.59792 | 22.72195 | 34823 ft | 438 kts | 197° |
| 2026-05-05 18:42 | 53.53838 | 22.69972 | 34836 ft | 438 kts | 197° |
| 2026-05-05 18:43 | 53.47881 | 22.67755 | 34834 ft | 439 kts | 197° |
| 2026-05-05 18:43 | 53.41918 | 22.65541 | 34835 ft | 439 kts | 197° |
| 2026-05-05 18:44 | 53.35946 | 22.63331 | 34828 ft | 440 kts | 197° |
| 2026-05-05 18:44 | 53.29961 | 22.61123 | 34816 ft | 440 kts | 197° |
| 2026-05-05 18:45 | 53.23976 | 22.58921 | 34817 ft | 440 kts | 197° |
| 2026-05-05 18:45 | 53.17995 | 22.56726 | 34816 ft | 440 kts | 197° |
| 2026-05-05 18:46 | 53.12011 | 22.54538 | 34821 ft | 441 kts | 197° |
| 2026-05-05 18:46 | 53.06015 | 22.52350 | 34801 ft | 441 kts | 196° |
| 2026-05-05 18:47 | 53.00028 | 22.50172 | 34802 ft | 441 kts | 196° |
| 2026-05-05 18:47 | 52.94005 | 22.47984 | 34217 ft | 447 kts | 196° |
| 2026-05-05 18:48 | 52.90973 | 22.46888 | 33594 ft | 445 kts | 196° |
| 2026-05-05 18:48 | 52.87951 | 22.45796 | 32846 ft | 445 kts | 196° |
| 2026-05-05 18:48 | 52.84929 | 22.44706 | 32125 ft | 444 kts | 196° |
| 2026-05-05 18:48 | 52.81911 | 22.43617 | 31425 ft | 444 kts | 196° |
| 2026-05-05 18:49 | 52.78884 | 22.42527 | 30678 ft | 445 kts | 196° |
| 2026-05-05 18:49 | 52.75851 | 22.41437 | 29908 ft | 447 kts | 196° |
| 2026-05-05 18:49 | 52.72910 | 22.39803 | 28712 ft | 447 kts | 212° |
| 2026-05-05 18:49 | 52.70510 | 22.36608 | 27539 ft | 446 kts | 232° |
| 2026-05-05 18:50 | 52.68760 | 22.32391 | 26465 ft | 447 kts | 244° |
| 2026-05-05 18:50 | 52.67662 | 22.27604 | 25377 ft | 449 kts | 256° |
| 2026-05-05 18:50 | 52.66943 | 22.22590 | 24512 ft | 449 kts | 257° |
| 2026-05-05 18:50 | 52.66261 | 22.17607 | 23835 ft | 444 kts | 257° |
| 2026-05-05 18:51 | 52.65583 | 22.12677 | 23142 ft | 439 kts | 257° |
| 2026-05-05 18:51 | 52.64899 | 22.07798 | 22314 ft | 436 kts | 257° |
| 2026-05-05 18:51 | 52.64207 | 22.02963 | 21619 ft | 430 kts | 256° |
| 2026-05-05 18:51 | 52.63516 | 21.98219 | 21007 ft | 423 kts | 256° |
| 2026-05-05 18:52 | 52.62828 | 21.93540 | 20382 ft | 417 kts | 256° |
| 2026-05-05 18:52 | 52.62150 | 21.88968 | 20114 ft | 404 kts | 256° |
| 2026-05-05 18:52 | 52.61495 | 21.84566 | 20004 ft | 387 kts | 256° |
| 2026-05-05 18:52 | 52.60865 | 21.80344 | 19852 ft | 374 kts | 256° |
| 2026-05-05 18:53 | 52.60249 | 21.76219 | 18875 ft | 373 kts | 256° |
| 2026-05-05 18:53 | 52.59622 | 21.72042 | 17725 ft | 378 kts | 256° |
| 2026-05-05 18:53 | 52.59002 | 21.67914 | 16768 ft | 375 kts | 256° |
| 2026-05-05 18:53 | 52.58383 | 21.63803 | 15981 ft | 367 kts | 256° |
| 2026-05-05 18:54 | 52.57775 | 21.59772 | 15199 ft | 360 kts | 256° |
| 2026-05-05 18:54 | 52.57176 | 21.55812 | 14383 ft | 354 kts | 256° |
| 2026-05-05 18:54 | 52.56583 | 21.51908 | 13583 ft | 349 kts | 255° |
| 2026-05-05 18:54 | 52.56000 | 21.48071 | 12723 ft | 344 kts | 255° |
| 2026-05-05 18:55 | 52.55421 | 21.44270 | 11856 ft | 341 kts | 255° |
| 2026-05-05 18:55 | 52.54848 | 21.40502 | 10950 ft | 339 kts | 254° |
| 2026-05-05 18:55 | 52.54273 | 21.36762 | 10263 ft | 336 kts | 253° |
| 2026-05-05 18:55 | 52.53690 | 21.32977 | 10111 ft | 342 kts | 253° |
| 2026-05-05 18:56 | 52.53121 | 21.29271 | 9965 ft | 325 kts | 253° |
| 2026-05-05 18:56 | 52.52589 | 21.25802 | 9830 ft | 303 kts | 253° |
| 2026-05-05 18:56 | 52.52092 | 21.22568 | 9808 ft | 283 kts | 253° |
| 2026-05-05 18:56 | 52.51619 | 21.19509 | 9800 ft | 269 kts | 252° |
| 2026-05-05 18:57 | 52.51148 | 21.16488 | 9232 ft | 281 kts | 252° |
| 2026-05-05 18:57 | 52.50650 | 21.13307 | 8341 ft | 292 kts | 253° |
| 2026-05-05 18:57 | 52.50141 | 21.10050 | 7527 ft | 297 kts | 253° |
| 2026-05-05 18:57 | 52.49630 | 21.06765 | 6802 ft | 298 kts | 253° |
| 2026-05-05 18:58 | 52.49114 | 21.03460 | 6075 ft | 299 kts | 253° |
| 2026-05-05 18:58 | 52.48596 | 21.00154 | 5326 ft | 300 kts | 253° |
| 2026-05-05 18:58 | 52.48146 | 20.96815 | 4583 ft | 301 kts | 257° |
| 2026-05-05 18:58 | 52.47801 | 20.93456 | 4061 ft | 295 kts | 258° |
| 2026-05-05 18:59 | 52.47493 | 20.90175 | 3598 ft | 287 kts | 258° |
| 2026-05-05 18:59 | 52.47192 | 20.86980 | 3183 ft | 279 kts | 258° |
| 2026-05-05 18:59 | 52.46899 | 20.83911 | 2762 ft | 267 kts | 259° |
| 2026-05-05 18:59 | 52.46616 | 20.80960 | 2345 ft | 255 kts | 261° |
| 2026-05-05 19:00 | 52.46350 | 20.78181 | 1950 ft | 238 kts | 263° |
| 2026-05-05 19:00 | 52.46106 | 20.75602 | 1654 ft | 218 kts | 264° |
| 2026-05-05 19:00 | 52.45880 | 20.73215 | 1258 ft | 204 kts | 267° |
| 2026-05-05 19:00 | 52.45672 | 20.71010 | 935 ft | 190 kts | 265° |
| 2026-05-05 19:01 | 52.45466 | 20.68952 | 621 ft | 175 kts | 266° |
| 2026-05-05 19:01 | 52.45287 | 20.67072 | 391 ft | 159 kts | 269° |
| 2026-05-05 19:01 | 52.45140 | 20.65346 | 353 ft | 147 kts | 261° |
| 2026-05-05 19:01 | 52.45019 | 20.64120 | 349 ft | 71 kts | 261° |
| 2026-05-05 19:02 | 52.44971 | 20.63606 | 349 ft | 31 kts | 262° |
| 2026-05-05 19:02 | 52.44936 | 20.63417 | 355 ft | 15 kts | 220° |
| 2026-05-05 19:02 | 52.44834 | 20.63406 | 356 ft | 15 kts | 174° |
| 2026-05-05 19:02 | 52.44735 | 20.63428 | 357 ft | 14 kts | 171° |
| 2026-05-05 19:03 | 52.44642 | 20.63464 | 355 ft | 13 kts | 142° |
| 2026-05-05 19:03 | 52.44631 | 20.63594 | 350 ft | 10 kts | 82° |
| 2026-05-05 19:03 | 52.44642 | 20.63709 | 350 ft | 10 kts | 80° |
| 2026-05-05 19:03 | 52.44654 | 20.63820 | 356 ft | 10 kts | 80° |
| 2026-05-05 19:04 | 52.44664 | 20.63928 | 357 ft | 10 kts | 83° |
| 2026-05-05 19:04 | 52.44673 | 20.64035 | 350 ft | 10 kts | 81° |
| 2026-05-05 19:04 | 52.44684 | 20.64142 | 352 ft | 9 kts | 82° |
| 2026-05-05 19:04 | 52.44693 | 20.64246 | 358 ft | 9 kts | 81° |
| 2026-05-05 19:05 | 52.44702 | 20.64340 | 350 ft | 8 kts | 81° |
| 2026-05-05 19:05 | 52.44711 | 20.64429 | 354 ft | 8 kts | 81° |
| 2026-05-05 19:05 | 52.44720 | 20.64522 | 351 ft | 10 kts | 81° |
| 2026-05-05 19:05 | 52.44735 | 20.64680 | 353 ft | 17 kts | 81° |
| 2026-05-05 19:06 | 52.44753 | 20.64865 | 353 ft | 16 kts | 80° |
| 2026-05-05 19:06 | 52.44769 | 20.65043 | 355 ft | 16 kts | 82° |
| 2026-05-05 19:06 | 52.44786 | 20.65215 | 350 ft | 15 kts | 81° |
| 2026-05-05 19:06 | 52.44796 | 20.65334 | 352 ft | 7 kts | 86° |
| 2026-05-05 19:07 | 52.44762 | 20.65349 | 349 ft | 7 kts | 213° |
| 2026-05-05 19:07 | 52.44752 | 20.65338 | 354 ft | 0 kts | 214° |